Dedeağaç, Yunanistan

Saat: 05:42 PM EEST Tarih: 24 Temmuz 2016 (GMT +0300)
Dimokritos | | Change Station
Aktif Uyarı: >

Elev 10 ft 40.86 °N, 25.94 °E | Updated 22 minutes ago

Partly Cloudy
Parçalı Bulutlu
90
Feels Like 90
N
12
Rüzgar Değişken Rüzgar from BGB

Bugün
High -- | Low -- F°
--% Chance of Precip.
Dün
High -- | Low -- F°
Precip. -- inç
Basınç 29.86 inç
Görüş Uzaklığı 6.2 mil
Bulutlar Few 3000 ft
Çiğ noktası 52
Nem oranı 27%
Yağış 0.00 inç
Kar Kalınlığı Not available.
6:05 AM 8:39 PM
Şişkin Ay, 76% visible
METAR LGAL 241420Z 25010KT 9999 FEW030 32/11 Q1011
Basınç 29.86 inç
Görüş Uzaklığı 6.2 mil
Bulutlar Few 3000 ft
Çiğ noktası 52
Nem oranı 27%
Yağış 0.00 inç
Kar Kalınlığı Not available.
6:05 AM 8:39 PM
Şişkin Ay, 76% visible
METAR LGAL 241420Z 25010KT 9999 FEW030 32/11 Q1011

10-Day Weather Forecast

×

Almanac

Gökbilim

Jul. 24, 2016 Rise Set
Gerçek Zaman
Günlük Tan
Deniz Tanı
Geceyarısı Yıldız Zamanı
Ay
Görünür Işığın Uzunluğu
Günün Uzunluğu
Tomorrow will be .
, % of the Moon is Illuminated

Günün En Yüksekleri

Country Highs Country Lows

Community

WunderPhotos

Upload Photos

1,927,071 photos uploaded!

WunderBlog® & News

Nearby

Hava Kalitesi

  Hava Kalitesi Hava Kalitesi Endeksi Kirletici
Not available.

Kar Kalınlığı

Station Depth Yükseklik

Earthquake Activity

Şehir Distance Mag. Time & Date
Minimum magnitude displayed is 2.5.

Coastal Water Temperatures

Yer Sıcaklık

Stations

Nearby Weather Stations

Station Location Sıcaklık Rüzgar Etkisi Çiğ noktası Nem oranı Rüzgar Precip. Elev Güncellenme Zamanı Biçim